Current Conditions
Partly Cloudy
Conditions



Pressure
1008.92 (mb) - 29.79 (inHG)
Visibility

6.2 (miles) - 10.0 (km)
Temperature
15  °C
Temperature
10  °C
Dewpoint
72  %
 Humidity
Wind Speed
25  mph
22  kts
40  km/h
11.2  m/s
Wind Direction
N
45°
E
90°
135°
S
180°
225°
W
270°
315°
 220°

South West
Airport Data
EGYM
RAF Marham
Metar :EGYM 251121Z 22022G33KT 9999 FEW027 BKN030 15/10 Q1009 BECMG SCT022 RMK BLU BECMG WHT
Wed 25th May 12:21 pm
Raw Metar Info
Raw METAR is the most common format in the world for the transmission of observational weather data. It is highly standardized through the International Civil Aviation Organization (ICAO), which allows it to be understood throughout most of the world.
API Info
Data Provided by
https://www.checkwx.com/weather/EGYM

Aviation Weather providing METAR, TAF, AIRMET, SIGMET and OUTLOOK Weather Reports
© Info
CSS/SVG/PHP scripts were developed by weather34 for use in the weather34 template © 2015-2022

Guide Info provided by Metar-Wikipedia